sensor_id;sensor_type;location;lat;lon;timestamp;pressure;altitude;pressure_sealevel;temperature;humidity
6615;BME280;3343;42.896;23.912;2023-01-28T00:00:53;95960.31;;;6.45;80.08
6615;BME280;3343;42.896;23.912;2023-01-28T00:03:21;95960.44;;;6.66;79.08
6615;BME280;3343;42.896;23.912;2023-01-28T00:05:48;95957.47;;;6.69;78.99
6615;BME280;3343;42.896;23.912;2023-01-28T00:08:15;95967.22;;;6.75;78.50
6615;BME280;3343;42.896;23.912;2023-01-28T00:10:42;95960.75;;;6.86;77.82
6615;BME280;3343;42.896;23.912;2023-01-28T00:13:10;95967.66;;;7.01;77.26
6615;BME280;3343;42.896;23.912;2023-01-28T00:15:39;95966.06;;;6.78;77.66
6615;BME280;3343;42.896;23.912;2023-01-28T00:18:06;95963.34;;;6.71;77.29
6615;BME280;3343;42.896;23.912;2023-01-28T00:20:34;95974.09;;;6.91;77.43
6615;BME280;3343;42.896;23.912;2023-01-28T00:23:01;95972.72;;;6.80;78.01
6615;BME280;3343;42.896;23.912;2023-01-28T00:25:28;95978.47;;;6.61;78.50
6615;BME280;3343;42.896;23.912;2023-01-28T00:27:55;95980.44;;;6.59;78.62
6615;BME280;3343;42.896;23.912;2023-01-28T00:30:21;95978.94;;;6.19;80.10
6615;BME280;3343;42.896;23.912;2023-01-28T00:32:48;95971.81;;;6.35;80.15
6615;BME280;3343;42.896;23.912;2023-01-28T00:35:15;95978.78;;;6.43;79.81
6615;BME280;3343;42.896;23.912;2023-01-28T00:37:45;95973.72;;;6.79;78.61
6615;BME280;3343;42.896;23.912;2023-01-28T00:40:12;95985.25;;;6.70;78.55
6615;BME280;3343;42.896;23.912;2023-01-28T00:42:39;95984.97;;;6.65;78.82
6615;BME280;3343;42.896;23.912;2023-01-28T00:45:07;95983.72;;;6.76;78.77
6615;BME280;3343;42.896;23.912;2023-01-28T00:47:34;95983.91;;;6.74;78.61
6615;BME280;3343;42.896;23.912;2023-01-28T00:50:01;95974.53;;;6.80;79.01
6615;BME280;3343;42.896;23.912;2023-01-28T00:52:28;95983.00;;;6.82;78.67
6615;BME280;3343;42.896;23.912;2023-01-28T00:54:57;95979.88;;;6.86;78.58
6615;BME280;3343;42.896;23.912;2023-01-28T00:57:23;95986.63;;;6.81;78.07
6615;BME280;3343;42.896;23.912;2023-01-28T00:59:50;95990.06;;;6.81;77.87
6615;BME280;3343;42.896;23.912;2023-01-28T01:02:17;95992.31;;;6.84;78.30
6615;BME280;3343;42.896;23.912;2023-01-28T01:04:44;95986.53;;;6.74;78.50
6615;BME280;3343;42.896;23.912;2023-01-28T01:07:21;95983.47;;;6.85;78.99
6615;BME280;3343;42.896;23.912;2023-01-28T01:09:58;95990.97;;;6.88;78.72
6615;BME280;3343;42.896;23.912;2023-01-28T01:12:25;95985.47;;;6.83;79.06
6615;BME280;3343;42.896;23.912;2023-01-28T01:14:52;95992.91;;;6.94;78.25
6615;BME280;3343;42.896;23.912;2023-01-28T01:17:19;95994.84;;;6.92;78.12
6615;BME280;3343;42.896;23.912;2023-01-28T01:19:46;95991.41;;;6.92;77.29
6615;BME280;3343;42.896;23.912;2023-01-28T01:22:13;95981.25;;;6.97;77.37
6615;BME280;3343;42.896;23.912;2023-01-28T01:24:40;95990.19;;;7.02;77.16
6615;BME280;3343;42.896;23.912;2023-01-28T01:27:08;95998.88;;;7.18;76.77
6615;BME280;3343;42.896;23.912;2023-01-28T01:29:35;95998.59;;;7.13;76.18
6615;BME280;3343;42.896;23.912;2023-01-28T01:32:03;95997.06;;;7.03;76.35
6615;BME280;3343;42.896;23.912;2023-01-28T01:34:30;96005.69;;;6.66;77.59
6615;BME280;3343;42.896;23.912;2023-01-28T01:36:57;96008.09;;;6.53;77.96
6615;BME280;3343;42.896;23.912;2023-01-28T01:39:24;96008.38;;;6.58;77.94
6615;BME280;3343;42.896;23.912;2023-01-28T01:41:51;96007.28;;;6.90;76.55
6615;BME280;3343;42.896;23.912;2023-01-28T01:44:51;96003.75;;;7.21;75.23
6615;BME280;3343;42.896;23.912;2023-01-28T01:47:20;96002.69;;;6.92;76.67
6615;BME280;3343;42.896;23.912;2023-01-28T01:49:49;95996.47;;;6.93;76.20
6615;BME280;3343;42.896;23.912;2023-01-28T01:52:19;96007.88;;;7.00;76.17
6615;BME280;3343;42.896;23.912;2023-01-28T01:54:50;96005.81;;;6.96;76.48
6615;BME280;3343;42.896;23.912;2023-01-28T01:57:21;96014.16;;;6.91;77.03
6615;BME280;3343;42.896;23.912;2023-01-28T01:59:51;96007.25;;;6.98;77.01
6615;BME280;3343;42.896;23.912;2023-01-28T02:02:19;96011.69;;;6.75;77.44
6615;BME280;3343;42.896;23.912;2023-01-28T02:04:47;96008.78;;;6.70;77.38
6615;BME280;3343;42.896;23.912;2023-01-28T02:07:15;96007.78;;;6.94;76.38
6615;BME280;3343;42.896;23.912;2023-01-28T02:09:44;96016.38;;;6.80;76.25
6615;BME280;3343;42.896;23.912;2023-01-28T02:12:13;96015.41;;;7.18;75.18
6615;BME280;3343;42.896;23.912;2023-01-28T02:14:44;96015.56;;;7.17;75.74
6615;BME280;3343;42.896;23.912;2023-01-28T02:17:15;96019.25;;;7.08;75.83
6615;BME280;3343;42.896;23.912;2023-01-28T02:19:47;96020.19;;;6.92;76.91
6615;BME280;3343;42.896;23.912;2023-01-28T02:22:48;96019.09;;;7.09;76.08
6615;BME280;3343;42.896;23.912;2023-01-28T02:28:21;96018.25;;;6.48;79.80
6615;BME280;3343;42.896;23.912;2023-01-28T02:30:52;96022.72;;;6.62;79.53
6615;BME280;3343;42.896;23.912;2023-01-28T02:33:26;96021.72;;;6.86;78.22
6615;BME280;3343;42.896;23.912;2023-01-28T02:35:59;96012.94;;;6.79;78.58
6615;BME280;3343;42.896;23.912;2023-01-28T02:38:32;96009.31;;;6.65;79.16
6615;BME280;3343;42.896;23.912;2023-01-28T02:41:04;96020.94;;;6.63;79.12
6615;BME280;3343;42.896;23.912;2023-01-28T02:43:38;96023.16;;;6.89;78.16
6615;BME280;3343;42.896;23.912;2023-01-28T02:46:16;96020.84;;;6.94;77.92
6615;BME280;3343;42.896;23.912;2023-01-28T02:49:03;96020.91;;;6.86;77.91
6615;BME280;3343;42.896;23.912;2023-01-28T02:51:40;96021.59;;;7.02;77.16
6615;BME280;3343;42.896;23.912;2023-01-28T02:54:11;96015.44;;;6.95;77.08
6615;BME280;3343;42.896;23.912;2023-01-28T02:56:47;96020.53;;;6.89;77.27
6615;BME280;3343;42.896;23.912;2023-01-28T02:59:25;96025.72;;;6.97;76.99
6615;BME280;3343;42.896;23.912;2023-01-28T03:02:00;96026.38;;;6.76;77.62
6615;BME280;3343;42.896;23.912;2023-01-28T03:04:33;96025.56;;;6.76;77.71
6615;BME280;3343;42.896;23.912;2023-01-28T03:07:06;96024.22;;;6.80;77.55
6615;BME280;3343;42.896;23.912;2023-01-28T03:09:35;96026.03;;;6.56;78.15
6615;BME280;3343;42.896;23.912;2023-01-28T03:12:04;96022.28;;;6.59;78.52
6615;BME280;3343;42.896;23.912;2023-01-28T03:14:55;96024.19;;;5.72;82.28
6615;BME280;3343;42.896;23.912;2023-01-28T03:17:43;96033.69;;;6.12;81.24
6615;BME280;3343;42.896;23.912;2023-01-28T03:20:34;96019.41;;;5.92;81.67
6615;BME280;3343;42.896;23.912;2023-01-28T03:23:26;96021.03;;;5.93;81.67
6615;BME280;3343;42.896;23.912;2023-01-28T03:26:14;96030.34;;;6.26;80.72
6615;BME280;3343;42.896;23.912;2023-01-28T03:29:04;96022.56;;;6.41;80.36
6615;BME280;3343;42.896;23.912;2023-01-28T03:31:53;96019.66;;;6.36;79.64
6615;BME280;3343;42.896;23.912;2023-01-28T03:34:39;96025.94;;;6.27;80.04
6615;BME280;3343;42.896;23.912;2023-01-28T03:37:23;96019.41;;;6.23;79.65
6615;BME280;3343;42.896;23.912;2023-01-28T03:39:51;96019.38;;;6.31;79.72
6615;BME280;3343;42.896;23.912;2023-01-28T03:42:18;96031.38;;;6.17;80.36
6615;BME280;3343;42.896;23.912;2023-01-28T03:44:45;96011.75;;;6.21;80.15
6615;BME280;3343;42.896;23.912;2023-01-28T03:47:19;96032.25;;;6.55;80.03
6615;BME280;3343;42.896;23.912;2023-01-28T03:49:47;96030.00;;;6.29;80.47
6615;BME280;3343;42.896;23.912;2023-01-28T03:52:15;96031.59;;;6.07;81.34
6615;BME280;3343;42.896;23.912;2023-01-28T03:54:43;96030.03;;;5.82;82.22
6615;BME280;3343;42.896;23.912;2023-01-28T03:57:12;96035.25;;;5.82;82.36
6615;BME280;3343;42.896;23.912;2023-01-28T03:59:39;96036.22;;;5.42;84.13
6615;BME280;3343;42.896;23.912;2023-01-28T04:02:07;96036.22;;;5.42;84.68
6615;BME280;3343;42.896;23.912;2023-01-28T04:04:37;96034.91;;;5.46;84.96
6615;BME280;3343;42.896;23.912;2023-01-28T04:07:06;96042.38;;;5.57;84.41
6615;BME280;3343;42.896;23.912;2023-01-28T04:09:35;96042.69;;;5.54;84.14
6615;BME280;3343;42.896;23.912;2023-01-28T04:12:03;96038.38;;;5.78;83.70
6615;BME280;3343;42.896;23.912;2023-01-28T04:14:30;96047.75;;;6.03;82.16
6615;BME280;3343;42.896;23.912;2023-01-28T04:16:57;96047.22;;;6.16;81.22
6615;BME280;3343;42.896;23.912;2023-01-28T04:19:25;96057.28;;;6.27;80.86
6615;BME280;3343;42.896;23.912;2023-01-28T04:21:54;96055.25;;;6.37;80.66
6615;BME280;3343;42.896;23.912;2023-01-28T04:24:22;96041.03;;;6.39;80.43
6615;BME280;3343;42.896;23.912;2023-01-28T04:26:49;96051.63;;;6.15;80.81
6615;BME280;3343;42.896;23.912;2023-01-28T04:29:16;96046.34;;;5.84;81.48
6615;BME280;3343;42.896;23.912;2023-01-28T04:31:43;96043.59;;;5.78;82.05
6615;BME280;3343;42.896;23.912;2023-01-28T04:34:10;96055.91;;;6.08;81.07
6615;BME280;3343;42.896;23.912;2023-01-28T04:36:37;96061.34;;;6.29;80.62
6615;BME280;3343;42.896;23.912;2023-01-28T04:39:05;96058.13;;;6.50;79.92
6615;BME280;3343;42.896;23.912;2023-01-28T04:41:32;96065.53;;;6.38;79.70
6615;BME280;3343;42.896;23.912;2023-01-28T04:43:59;96066.41;;;6.31;80.07
6615;BME280;3343;42.896;23.912;2023-01-28T04:46:25;96066.03;;;6.03;80.77
6615;BME280;3343;42.896;23.912;2023-01-28T04:48:52;96060.88;;;5.79;82.20
6615;BME280;3343;42.896;23.912;2023-01-28T04:51:19;96060.28;;;5.60;83.40
6615;BME280;3343;42.896;23.912;2023-01-28T04:53:46;96075.34;;;5.50;84.54
6615;BME280;3343;42.896;23.912;2023-01-28T04:56:14;96072.16;;;5.71;84.31
6615;BME280;3343;42.896;23.912;2023-01-28T04:58:41;96080.88;;;5.55;84.38
6615;BME280;3343;42.896;23.912;2023-01-28T05:01:08;96087.03;;;5.70;83.73
6615;BME280;3343;42.896;23.912;2023-01-28T05:03:35;96083.09;;;5.74;83.82
6615;BME280;3343;42.896;23.912;2023-01-28T05:06:01;96086.06;;;5.63;83.83
6615;BME280;3343;42.896;23.912;2023-01-28T05:08:29;96084.16;;;5.49;85.01
6615;BME280;3343;42.896;23.912;2023-01-28T05:10:56;96088.56;;;5.40;85.27
6615;BME280;3343;42.896;23.912;2023-01-28T05:13:24;96089.97;;;5.67;84.87
6615;BME280;3343;42.896;23.912;2023-01-28T05:15:51;96096.69;;;5.62;84.62
6615;BME280;3343;42.896;23.912;2023-01-28T05:18:18;96101.91;;;5.62;84.70
6615;BME280;3343;42.896;23.912;2023-01-28T05:20:46;96104.25;;;5.88;83.64
6615;BME280;3343;42.896;23.912;2023-01-28T05:23:13;96105.97;;;5.64;84.16
6615;BME280;3343;42.896;23.912;2023-01-28T05:25:40;96106.03;;;5.40;84.91
6615;BME280;3343;42.896;23.912;2023-01-28T05:28:06;96105.66;;;5.51;85.00
6615;BME280;3343;42.896;23.912;2023-01-28T05:30:36;96106.19;;;6.10;82.82
6615;BME280;3343;42.896;23.912;2023-01-28T05:33:03;96112.03;;;6.20;81.85
6615;BME280;3343;42.896;23.912;2023-01-28T05:35:30;96112.38;;;6.17;81.75
6615;BME280;3343;42.896;23.912;2023-01-28T05:37:57;96118.78;;;6.37;81.26
6615;BME280;3343;42.896;23.912;2023-01-28T05:40:23;96120.41;;;6.38;81.13
6615;BME280;3343;42.896;23.912;2023-01-28T05:42:50;96126.94;;;6.43;80.69
6615;BME280;3343;42.896;23.912;2023-01-28T05:45:17;96127.78;;;6.35;81.30
6615;BME280;3343;42.896;23.912;2023-01-28T05:47:45;96137.25;;;6.67;80.11
6615;BME280;3343;42.896;23.912;2023-01-28T05:50:13;96136.25;;;6.68;80.19
6615;BME280;3343;42.896;23.912;2023-01-28T05:52:40;96122.59;;;6.58;79.15
6615;BME280;3343;42.896;23.912;2023-01-28T05:55:08;96138.53;;;6.71;79.08
6615;BME280;3343;42.896;23.912;2023-01-28T05:57:35;96127.13;;;6.64;79.59
6615;BME280;3343;42.896;23.912;2023-01-28T06:00:03;96141.69;;;6.89;79.28
6615;BME280;3343;42.896;23.912;2023-01-28T06:02:30;96130.28;;;6.82;78.65
6615;BME280;3343;42.896;23.912;2023-01-28T06:04:59;96138.66;;;7.23;77.47
6615;BME280;3343;42.896;23.912;2023-01-28T06:07:26;96143.28;;;6.98;77.45
6615;BME280;3343;42.896;23.912;2023-01-28T06:09:53;96153.34;;;7.10;77.48
6615;BME280;3343;42.896;23.912;2023-01-28T06:12:20;96160.00;;;6.89;77.80
6615;BME280;3343;42.896;23.912;2023-01-28T06:14:47;96175.44;;;6.76;78.27
6615;BME280;3343;42.896;23.912;2023-01-28T06:17:14;96161.38;;;6.77;78.11
6615;BME280;3343;42.896;23.912;2023-01-28T06:19:41;96166.88;;;6.59;79.24
6615;BME280;3343;42.896;23.912;2023-01-28T06:22:10;96169.00;;;6.56;79.78
6615;BME280;3343;42.896;23.912;2023-01-28T06:24:38;96172.22;;;6.66;79.62
6615;BME280;3343;42.896;23.912;2023-01-28T06:27:05;96172.09;;;6.59;79.28
6615;BME280;3343;42.896;23.912;2023-01-28T06:29:31;96174.00;;;6.34;79.53
6615;BME280;3343;42.896;23.912;2023-01-28T06:31:58;96174.28;;;6.48;80.21
6615;BME280;3343;42.896;23.912;2023-01-28T06:34:25;96151.22;;;6.20;80.70
6615;BME280;3343;42.896;23.912;2023-01-28T06:36:52;96174.63;;;6.45;80.53
6615;BME280;3343;42.896;23.912;2023-01-28T06:39:20;96180.50;;;6.78;80.17
6615;BME280;3343;42.896;23.912;2023-01-28T06:41:47;96183.50;;;6.66;79.82
6615;BME280;3343;42.896;23.912;2023-01-28T06:44:15;96185.66;;;6.86;78.95
6615;BME280;3343;42.896;23.912;2023-01-28T06:46:42;96189.38;;;6.68;79.17
6615;BME280;3343;42.896;23.912;2023-01-28T06:49:09;96188.09;;;6.64;79.44
6615;BME280;3343;42.896;23.912;2023-01-28T06:51:35;96195.56;;;6.36;80.55
6615;BME280;3343;42.896;23.912;2023-01-28T06:54:02;96197.50;;;6.43;80.68
6615;BME280;3343;42.896;23.912;2023-01-28T06:56:31;96193.44;;;6.40;81.18
6615;BME280;3343;42.896;23.912;2023-01-28T06:58:58;96203.66;;;5.94;82.73
6615;BME280;3343;42.896;23.912;2023-01-28T07:01:25;96201.88;;;5.79;84.19
6615;BME280;3343;42.896;23.912;2023-01-28T07:03:51;96180.66;;;5.73;84.52
6615;BME280;3343;42.896;23.912;2023-01-28T07:06:18;96206.75;;;6.14;83.32
6615;BME280;3343;42.896;23.912;2023-01-28T07:08:46;96209.97;;;6.24;82.68
6615;BME280;3343;42.896;23.912;2023-01-28T07:11:13;96210.03;;;6.08;82.54
6615;BME280;3343;42.896;23.912;2023-01-28T07:13:41;96215.69;;;6.28;83.02
6615;BME280;3343;42.896;23.912;2023-01-28T07:16:09;96220.03;;;6.44;82.41
6615;BME280;3343;42.896;23.912;2023-01-28T07:18:36;96226.09;;;6.44;81.71
6615;BME280;3343;42.896;23.912;2023-01-28T07:21:03;96221.69;;;6.76;80.76
6615;BME280;3343;42.896;23.912;2023-01-28T07:23:30;96216.00;;;6.72;80.50
6615;BME280;3343;42.896;23.912;2023-01-28T07:26:00;96225.53;;;6.96;80.11
6615;BME280;3343;42.896;23.912;2023-01-28T07:28:27;96234.09;;;6.82;80.03
6615;BME280;3343;42.896;23.912;2023-01-28T07:30:55;96237.53;;;7.13;79.12
6615;BME280;3343;42.896;23.912;2023-01-28T07:33:22;96238.13;;;7.23;79.01
6615;BME280;3343;42.896;23.912;2023-01-28T07:35:49;96234.09;;;7.35;77.46
6615;BME280;3343;42.896;23.912;2023-01-28T07:38:16;96239.88;;;7.31;77.14
6615;BME280;3343;42.896;23.912;2023-01-28T07:40:43;96244.81;;;7.26;77.58
6615;BME280;3343;42.896;23.912;2023-01-28T07:43:10;96244.28;;;7.30;77.51
6615;BME280;3343;42.896;23.912;2023-01-28T07:45:37;96249.34;;;7.32;77.72
6615;BME280;3343;42.896;23.912;2023-01-28T07:48:08;96258.00;;;7.55;76.98
6615;BME280;3343;42.896;23.912;2023-01-28T07:50:36;96246.97;;;7.45;77.42
6615;BME280;3343;42.896;23.912;2023-01-28T07:53:05;96249.75;;;7.66;77.10
6615;BME280;3343;42.896;23.912;2023-01-28T07:55:33;96251.91;;;7.86;76.88
6615;BME280;3343;42.896;23.912;2023-01-28T07:58:02;96240.97;;;7.82;77.04
6615;BME280;3343;42.896;23.912;2023-01-28T08:00:31;96244.06;;;8.01;76.26
6615;BME280;3343;42.896;23.912;2023-01-28T08:03:00;96242.59;;;7.83;76.56
6615;BME280;3343;42.896;23.912;2023-01-28T08:05:32;96245.09;;;8.29;75.84
6615;BME280;3343;42.896;23.912;2023-01-28T08:08:04;96258.25;;;8.06;74.92
6615;BME280;3343;42.896;23.912;2023-01-28T08:10:31;96254.72;;;7.99;75.70
6615;BME280;3343;42.896;23.912;2023-01-28T08:12:57;96265.19;;;7.99;75.55
6615;BME280;3343;42.896;23.912;2023-01-28T08:15:25;96266.84;;;8.15;74.98
6615;BME280;3343;42.896;23.912;2023-01-28T08:17:53;96262.75;;;8.35;74.95
6615;BME280;3343;42.896;23.912;2023-01-28T08:20:20;96259.75;;;7.86;75.57
6615;BME280;3343;42.896;23.912;2023-01-28T08:22:49;96272.00;;;8.08;75.68
6615;BME280;3343;42.896;23.912;2023-01-28T08:25:16;96268.34;;;7.72;76.13
6615;BME280;3343;42.896;23.912;2023-01-28T08:27:43;96268.78;;;7.60;76.85
6615;BME280;3343;42.896;23.912;2023-01-28T08:30:10;96279.88;;;7.62;77.32
6615;BME280;3343;42.896;23.912;2023-01-28T08:32:37;96273.31;;;7.21;78.84
6615;BME280;3343;42.896;23.912;2023-01-28T08:35:04;96271.22;;;7.85;77.22
6615;BME280;3343;42.896;23.912;2023-01-28T08:37:32;96275.69;;;7.99;76.24
6615;BME280;3343;42.896;23.912;2023-01-28T08:40:00;96279.63;;;8.32;75.24
6615;BME280;3343;42.896;23.912;2023-01-28T08:42:27;96286.44;;;8.04;74.97
6615;BME280;3343;42.896;23.912;2023-01-28T08:44:54;96280.69;;;8.23;74.88
6615;BME280;3343;42.896;23.912;2023-01-28T08:47:21;96285.97;;;8.38;73.80
6615;BME280;3343;42.896;23.912;2023-01-28T08:49:48;96292.69;;;8.41;72.65
6615;BME280;3343;42.896;23.912;2023-01-28T08:52:14;96280.63;;;8.31;72.40
6615;BME280;3343;42.896;23.912;2023-01-28T08:54:41;96281.97;;;8.27;72.63
6615;BME280;3343;42.896;23.912;2023-01-28T08:57:10;96265.66;;;8.03;74.15
6615;BME280;3343;42.896;23.912;2023-01-28T08:59:37;96278.38;;;7.91;74.36
6615;BME280;3343;42.896;23.912;2023-01-28T09:02:12;96289.69;;;8.44;73.46
6615;BME280;3343;42.896;23.912;2023-01-28T09:04:39;96285.75;;;8.25;73.23
6615;BME280;3343;42.896;23.912;2023-01-28T09:07:06;96293.81;;;8.23;72.88
6615;BME280;3343;42.896;23.912;2023-01-28T09:09:33;96289.97;;;8.11;73.88
6615;BME280;3343;42.896;23.912;2023-01-28T09:12:00;96291.34;;;8.07;73.72
6615;BME280;3343;42.896;23.912;2023-01-28T09:14:28;96292.75;;;7.95;74.23
6615;BME280;3343;42.896;23.912;2023-01-28T09:16:55;96298.88;;;7.87;73.77
6615;BME280;3343;42.896;23.912;2023-01-28T09:19:22;96294.03;;;7.99;73.49
6615;BME280;3343;42.896;23.912;2023-01-28T09:21:49;96294.19;;;7.97;73.64
6615;BME280;3343;42.896;23.912;2023-01-28T09:24:15;96294.78;;;8.08;73.03
6615;BME280;3343;42.896;23.912;2023-01-28T09:26:43;96298.03;;;8.10;72.56
6615;BME280;3343;42.896;23.912;2023-01-28T09:29:10;96289.13;;;7.96;72.19
6615;BME280;3343;42.896;23.912;2023-01-28T09:31:40;96297.28;;;7.78;74.57
6615;BME280;3343;42.896;23.912;2023-01-28T09:34:07;96288.03;;;7.67;75.33
6615;BME280;3343;42.896;23.912;2023-01-28T09:36:34;96290.84;;;7.89;75.43
6615;BME280;3343;42.896;23.912;2023-01-28T09:39:01;96295.13;;;8.05;75.02
6615;BME280;3343;42.896;23.912;2023-01-28T09:41:38;96286.28;;;8.20;74.42
6615;BME280;3343;42.896;23.912;2023-01-28T09:44:22;96296.50;;;8.15;73.85
6615;BME280;3343;42.896;23.912;2023-01-28T09:46:59;96281.97;;;8.27;73.14
6615;BME280;3343;42.896;23.912;2023-01-28T09:49:33;96287.56;;;8.24;74.48
6615;BME280;3343;42.896;23.912;2023-01-28T09:52:01;96296.88;;;7.89;75.45
6615;BME280;3343;42.896;23.912;2023-01-28T09:54:33;96302.19;;;8.19;74.11
6615;BME280;3343;42.896;23.912;2023-01-28T09:57:05;96294.34;;;8.19;73.93
6615;BME280;3343;42.896;23.912;2023-01-28T09:59:34;96299.34;;;7.91;74.25
6615;BME280;3343;42.896;23.912;2023-01-28T10:02:26;96289.34;;;8.09;73.95
6615;BME280;3343;42.896;23.912;2023-01-28T10:04:59;96293.56;;;7.73;74.58
6615;BME280;3343;42.896;23.912;2023-01-28T10:07:35;96292.22;;;7.77;74.91
6615;BME280;3343;42.896;23.912;2023-01-28T10:10:11;96294.72;;;7.93;74.26
6615;BME280;3343;42.896;23.912;2023-01-28T10:12:48;96297.22;;;8.09;75.25
6615;BME280;3343;42.896;23.912;2023-01-28T10:15:40;96290.31;;;8.60;72.97
6615;BME280;3343;42.896;23.912;2023-01-28T10:18:13;96299.22;;;8.74;72.54
6615;BME280;3343;42.896;23.912;2023-01-28T10:20:42;96291.53;;;8.87;72.18
6615;BME280;3343;42.896;23.912;2023-01-28T10:23:14;96291.41;;;9.10;70.97
6615;BME280;3343;42.896;23.912;2023-01-28T10:25:42;96295.31;;;9.00;70.15
6615;BME280;3343;42.896;23.912;2023-01-28T10:28:20;96301.25;;;9.08;69.36
6615;BME280;3343;42.896;23.912;2023-01-28T10:30:48;96299.94;;;8.83;68.90
6615;BME280;3343;42.896;23.912;2023-01-28T10:33:21;96306.16;;;9.11;67.28
6615;BME280;3343;42.896;23.912;2023-01-28T10:35:49;96290.97;;;8.62;67.25
6615;BME280;3343;42.896;23.912;2023-01-28T10:38:19;96294.16;;;8.73;68.08
6615;BME280;3343;42.896;23.912;2023-01-28T10:40:47;96299.13;;;8.82;66.84
6615;BME280;3343;42.896;23.912;2023-01-28T10:43:15;96295.03;;;8.94;65.36
6615;BME280;3343;42.896;23.912;2023-01-28T10:45:53;96300.16;;;9.17;63.95
6615;BME280;3343;42.896;23.912;2023-01-28T10:48:25;96296.19;;;9.07;65.40
6615;BME280;3343;42.896;23.912;2023-01-28T10:50:55;96303.34;;;8.98;64.51
6615;BME280;3343;42.896;23.912;2023-01-28T10:53:34;96302.25;;;9.07;65.39
6615;BME280;3343;42.896;23.912;2023-01-28T10:56:02;96305.97;;;8.98;66.97
6615;BME280;3343;42.896;23.912;2023-01-28T10:58:32;96304.63;;;8.87;68.05
6615;BME280;3343;42.896;23.912;2023-01-28T11:01:02;96302.53;;;8.98;67.82
6615;BME280;3343;42.896;23.912;2023-01-28T11:03:32;96295.06;;;8.80;69.79
6615;BME280;3343;42.896;23.912;2023-01-28T11:06:01;96300.38;;;8.57;70.65
6615;BME280;3343;42.896;23.912;2023-01-28T11:08:29;96302.81;;;8.58;71.24
6615;BME280;3343;42.896;23.912;2023-01-28T11:10:57;96298.47;;;8.13;72.36
6615;BME280;3343;42.896;23.912;2023-01-28T11:13:26;96302.59;;;7.70;75.23
6615;BME280;3343;42.896;23.912;2023-01-28T11:15:56;96302.06;;;7.52;75.02
6615;BME280;3343;42.896;23.912;2023-01-28T11:18:27;96286.06;;;7.47;74.52
6615;BME280;3343;42.896;23.912;2023-01-28T11:20:59;96304.88;;;7.96;72.25
6615;BME280;3343;42.896;23.912;2023-01-28T11:23:29;96304.38;;;8.15;71.29
6615;BME280;3343;42.896;23.912;2023-01-28T11:25:59;96303.34;;;8.02;73.44
6615;BME280;3343;42.896;23.912;2023-01-28T11:28:29;96297.47;;;8.37;72.42
6615;BME280;3343;42.896;23.912;2023-01-28T11:30:57;96294.88;;;8.14;72.78
6615;BME280;3343;42.896;23.912;2023-01-28T11:33:31;96291.69;;;8.04;72.69
6615;BME280;3343;42.896;23.912;2023-01-28T11:36:06;96297.47;;;7.99;72.08
6615;BME280;3343;42.896;23.912;2023-01-28T11:38:33;96292.22;;;7.54;73.08
6615;BME280;3343;42.896;23.912;2023-01-28T11:41:00;96297.03;;;8.11;71.86
6615;BME280;3343;42.896;23.912;2023-01-28T11:43:29;96291.78;;;8.48;70.56
6615;BME280;3343;42.896;23.912;2023-01-28T11:46:06;96292.78;;;8.62;68.96
6615;BME280;3343;42.896;23.912;2023-01-28T11:48:43;96293.94;;;8.59;69.05
6615;BME280;3343;42.896;23.912;2023-01-28T11:51:27;96297.38;;;8.45;69.93
6615;BME280;3343;42.896;23.912;2023-01-28T11:54:06;96286.66;;;8.32;71.02
6615;BME280;3343;42.896;23.912;2023-01-28T11:56:57;96294.31;;;8.04;71.73
6615;BME280;3343;42.896;23.912;2023-01-28T11:59:48;96295.31;;;7.34;74.48
6615;BME280;3343;42.896;23.912;2023-01-28T12:02:38;96286.84;;;7.24;74.90
6615;BME280;3343;42.896;23.912;2023-01-28T12:05:21;96275.84;;;7.97;72.13
6615;BME280;3343;42.896;23.912;2023-01-28T12:07:56;96289.38;;;8.24;71.45
6615;BME280;3343;42.896;23.912;2023-01-28T12:14:06;96288.59;;;8.38;69.03
6615;BME280;3343;42.896;23.912;2023-01-28T12:17:01;96294.03;;;8.37;69.18
6615;BME280;3343;42.896;23.912;2023-01-28T12:19:59;96291.75;;;8.34;68.88
6615;BME280;3343;42.896;23.912;2023-01-28T12:23:01;96303.53;;;8.52;69.44
6615;BME280;3343;42.896;23.912;2023-01-28T12:25:46;96299.59;;;8.71;69.46
6615;BME280;3343;42.896;23.912;2023-01-28T12:28:24;96294.41;;;8.63;68.89
6615;BME280;3343;42.896;23.912;2023-01-28T12:31:09;96304.38;;;8.30;70.05
6615;BME280;3343;42.896;23.912;2023-01-28T12:34:52;96298.38;;;8.07;70.96
6615;BME280;3343;42.896;23.912;2023-01-28T12:37:32;96302.97;;;8.42;69.69
6615;BME280;3343;42.896;23.912;2023-01-28T12:43:02;96301.44;;;8.33;69.79
6615;BME280;3343;42.896;23.912;2023-01-28T12:45:35;96305.63;;;7.82;71.15
6615;BME280;3343;42.896;23.912;2023-01-28T12:48:08;96303.06;;;7.96;71.66
6615;BME280;3343;42.896;23.912;2023-01-28T12:51:02;96313.56;;;8.34;70.89
6615;BME280;3343;42.896;23.912;2023-01-28T12:53:36;96308.06;;;8.21;71.41
6615;BME280;3343;42.896;23.912;2023-01-28T12:56:09;96314.41;;;7.89;74.91
6615;BME280;3343;42.896;23.912;2023-01-28T12:58:44;96311.56;;;7.98;72.67
6615;BME280;3343;42.896;23.912;2023-01-28T13:01:16;96312.78;;;7.88;72.10
6615;BME280;3343;42.896;23.912;2023-01-28T13:03:50;96316.13;;;7.51;72.52
6615;BME280;3343;42.896;23.912;2023-01-28T13:06:23;96314.34;;;7.97;71.84
6615;BME280;3343;42.896;23.912;2023-01-28T13:08:59;96327.03;;;7.62;74.50
6615;BME280;3343;42.896;23.912;2023-01-28T13:11:33;96316.66;;;7.46;73.82
6615;BME280;3343;42.896;23.912;2023-01-28T13:14:01;96326.78;;;7.49;74.14
6615;BME280;3343;42.896;23.912;2023-01-28T13:16:29;96326.25;;;7.85;72.43
6615;BME280;3343;42.896;23.912;2023-01-28T13:19:04;96325.69;;;8.50;71.04
6615;BME280;3343;42.896;23.912;2023-01-28T13:21:34;96325.16;;;8.54;70.23
6615;BME280;3343;42.896;23.912;2023-01-28T13:24:18;96325.09;;;8.77;68.95
6615;BME280;3343;42.896;23.912;2023-01-28T13:26:49;96330.50;;;8.61;67.86
6615;BME280;3343;42.896;23.912;2023-01-28T13:29:31;96332.06;;;8.85;66.99
6615;BME280;3343;42.896;23.912;2023-01-28T13:32:00;96325.19;;;8.84;66.52
6615;BME280;3343;42.896;23.912;2023-01-28T13:34:34;96336.84;;;8.96;67.28
6615;BME280;3343;42.896;23.912;2023-01-28T13:37:05;96328.16;;;8.96;67.13
6615;BME280;3343;42.896;23.912;2023-01-28T13:39:34;96333.31;;;8.89;67.49
6615;BME280;3343;42.896;23.912;2023-01-28T13:42:33;96338.66;;;9.10;67.49
6615;BME280;3343;42.896;23.912;2023-01-28T13:45:22;96344.59;;;9.19;66.19
6615;BME280;3343;42.896;23.912;2023-01-28T13:47:52;96350.50;;;9.21;66.09
6615;BME280;3343;42.896;23.912;2023-01-28T13:50:22;96344.44;;;9.06;65.87
6615;BME280;3343;42.896;23.912;2023-01-28T13:56:15;96355.75;;;9.21;64.72